createdAt,value
2019-04-27T00:00:44.232Z,59.40
2019-04-27T00:01:45.297Z,56.20
2019-04-27T00:02:44.179Z,57.30
2019-04-27T00:03:44.865Z,55.00
2019-04-27T00:04:44.125Z,63.10
2019-04-27T00:05:44.109Z,61.50
2019-04-27T00:06:46.392Z,62.00
2019-04-27T00:07:44.052Z,59.10
2019-04-27T00:08:44.018Z,58.30
2019-04-27T00:09:50.313Z,63.60
2019-04-27T00:10:43.965Z,62.70
2019-04-27T00:11:45.464Z,53.60
2019-04-27T00:12:43.913Z,60.90
2019-04-27T00:13:44.020Z,60.30
2019-04-27T00:14:43.979Z,63.00
2019-04-27T00:15:43.991Z,60.30
2019-04-27T00:16:46.912Z,60.40
2019-04-27T00:17:48.665Z,60.20
2019-04-27T00:18:45.457Z,63.40
2019-04-27T00:19:43.926Z,62.10
2019-04-27T00:20:43.699Z,59.60
2019-04-27T00:21:43.672Z,65.10
2019-04-27T00:22:43.659Z,63.10
2019-04-27T00:23:43.623Z,66.30
2019-04-27T00:24:44.160Z,60.30
2019-04-27T00:25:43.831Z,64.10
2019-04-27T00:26:45.560Z,59.10
2019-04-27T00:27:43.671Z,63.90
2019-04-27T00:28:43.520Z,64.40
2019-04-27T00:29:43.462Z,62.70
2019-04-27T00:30:43.868Z,60.90
2019-04-27T00:31:43.586Z,58.40
2019-04-27T00:32:43.414Z,59.20
2019-04-27T00:33:43.556Z,65.00
2019-04-27T00:34:43.328Z,57.40
2019-04-27T00:35:43.834Z,65.50
2019-04-27T00:36:43.592Z,66.30
2019-04-27T00:37:44.904Z,61.90
2019-04-27T00:38:43.632Z,67.50
2019-04-27T00:39:43.402Z,68.80
2019-04-27T00:40:43.683Z,64.50
2019-04-27T00:41:43.141Z,75.00
2019-04-27T00:42:44.148Z,67.40
2019-04-27T00:43:44.466Z,66.40
2019-04-27T00:44:43.104Z,67.90
2019-04-27T00:45:43.668Z,70.40
2019-04-27T00:46:43.206Z,72.20
2019-04-27T00:47:54.570Z,78.00
2019-04-27T00:48:43.364Z,79.60
2019-04-27T00:49:44.320Z,75.20
2019-04-27T00:50:43.866Z,74.70
2019-04-27T00:51:43.393Z,72.60
2019-04-27T00:52:43.025Z,71.20
2019-04-27T00:53:43.576Z,75.60
2019-04-27T00:54:44.120Z,81.60
2019-04-27T00:55:43.513Z,80.10
2019-04-27T00:56:42.988Z,82.90
2019-04-27T00:57:43.513Z,83.80
2019-04-27T00:58:43.044Z,82.40
2019-04-27T00:59:43.143Z,84.50
2019-04-27T01:00:44.008Z,83.70
2019-04-27T01:01:43.588Z,86.30
2019-04-27T01:02:43.558Z,81.20
2019-04-27T01:03:43.114Z,77.80
2019-04-27T01:04:42.866Z,79.40
2019-04-27T01:05:43.067Z,87.10
2019-04-27T01:06:43.760Z,81.90
2019-04-27T01:07:43.434Z,81.30
2019-04-27T01:08:42.772Z,84.50
2019-04-27T01:09:42.883Z,92.30
2019-04-27T01:10:43.556Z,91.60
2019-04-27T01:11:43.415Z,96.80
2019-04-27T01:12:42.930Z,91.00
2019-04-27T01:13:43.440Z,91.70
2019-04-27T01:14:42.769Z,95.70
2019-04-27T01:15:43.003Z,88.60
2019-04-27T01:16:42.203Z,91.90
2019-04-27T01:17:42.175Z,98.10
2019-04-27T01:18:42.149Z,96.60
2019-04-27T01:19:42.123Z,97.60
2019-04-27T01:20:42.094Z,91.00
2019-04-27T01:21:42.069Z,90.70
2019-04-27T01:22:42.042Z,92.80
2019-04-27T01:23:42.014Z,97.20
2019-04-27T01:24:41.988Z,95.90
2019-04-27T01:25:41.961Z,89.40
2019-04-27T01:26:41.939Z,99.80
2019-04-27T01:27:41.908Z,93.20
2019-04-27T01:28:41.881Z,98.70
2019-04-27T01:29:41.855Z,95.60
2019-04-27T01:30:41.828Z,92.00
2019-04-27T01:31:41.800Z,88.60
2019-04-27T01:32:41.772Z,98.40
2019-04-27T01:33:41.747Z,92.70
2019-04-27T01:34:41.720Z,97.10
2019-04-27T01:35:41.693Z,96.90
2019-04-27T01:36:41.666Z,87.70
2019-04-27T01:37:41.639Z,93.90
2019-04-27T01:38:41.613Z,93.10
2019-04-27T01:39:41.592Z,97.70
2019-04-27T01:40:41.560Z,96.40
2019-04-27T01:41:41.537Z,94.80
2019-04-27T01:42:41.510Z,93.90
2019-04-27T01:43:41.479Z,95.70
2019-04-27T01:44:41.455Z,96.90
2019-04-27T01:45:41.435Z,95.40
2019-04-27T01:46:41.399Z,86.30
2019-04-27T01:47:41.373Z,87.60
2019-04-27T01:48:41.344Z,93.40
2019-04-27T01:49:41.318Z,89.10
2019-04-27T01:50:41.294Z,94.30
2019-04-27T01:51:41.263Z,90.10
2019-04-27T01:52:41.238Z,95.70
2019-04-27T01:53:41.211Z,100.30
2019-04-27T01:54:41.222Z,89.40
2019-04-27T01:55:41.158Z,92.60
2019-04-27T01:56:41.130Z,91.90
2019-04-27T01:57:41.104Z,87.30
2019-04-27T01:58:41.075Z,93.90
2019-04-27T01:59:41.049Z,91.70
2019-04-27T02:00:41.022Z,93.50
2019-04-27T02:01:40.996Z,85.40
2019-04-27T02:02:40.971Z,85.10
2019-04-27T02:03:40.943Z,85.10
2019-04-27T02:04:40.917Z,82.00
2019-04-27T02:05:40.889Z,80.90
2019-04-27T02:06:40.862Z,89.70
2019-04-27T02:07:40.835Z,96.40
2019-04-27T02:08:40.810Z,99.60
2019-04-27T02:09:40.782Z,92.10
2019-04-27T02:10:40.756Z,91.00
2019-04-27T02:11:40.728Z,91.20
2019-04-27T02:12:43.654Z,86.70
2019-04-27T02:13:40.674Z,102.10
2019-04-27T02:14:40.650Z,89.60
2019-04-27T02:15:40.622Z,79.60
2019-04-27T02:16:40.595Z,80.70
2019-04-27T02:17:40.569Z,79.10
2019-04-27T02:18:40.543Z,78.60
2019-04-27T02:19:40.515Z,82.30
2019-04-27T02:20:40.487Z,81.80
2019-04-27T02:21:40.462Z,92.60
2019-04-27T02:22:40.437Z,78.80
2019-04-27T02:23:40.408Z,106.20
2019-04-27T02:24:40.383Z,100.60
2019-04-27T02:25:40.356Z,77.20
2019-04-27T02:26:40.329Z,81.60
2019-04-27T02:27:40.303Z,80.10
2019-04-27T02:28:40.275Z,87.40
2019-04-27T02:29:40.249Z,87.90
2019-04-27T02:30:40.906Z,91.40
2019-04-27T02:31:40.486Z,97.80
2019-04-27T02:32:40.172Z,128.80
2019-04-27T02:33:40.499Z,126.70
2019-04-27T02:34:40.118Z,112.80
2019-04-27T02:35:41.941Z,88.50
2019-04-27T02:36:40.064Z,80.30
2019-04-27T02:37:40.486Z,81.90
2019-04-27T02:38:40.613Z,87.40
2019-04-27T02:39:40.111Z,85.50
2019-04-27T02:40:42.605Z,80.80
2019-04-27T02:41:40.208Z,83.70
2019-04-27T02:42:42.211Z,94.40
2019-04-27T02:43:40.125Z,89.10
2019-04-27T02:44:40.698Z,85.20
2019-04-27T02:45:40.411Z,111.20
2019-04-27T02:46:39.835Z,107.00
2019-04-27T02:47:40.778Z,124.80
2019-04-27T02:48:55.604Z,117.20
2019-04-27T02:49:40.650Z,101.50
2019-04-27T02:50:40.097Z,113.90
2019-04-27T02:51:40.574Z,136.40
2019-04-27T02:52:40.487Z,130.00
2019-04-27T02:53:39.612Z,126.10
2019-04-27T02:54:40.083Z,113.30
2019-04-27T02:55:39.893Z,99.30
2019-04-27T02:56:40.518Z,107.70
2019-04-27T02:57:40.004Z,98.40
2019-04-27T02:58:40.657Z,97.60
2019-04-27T02:59:40.032Z,109.00
2019-04-27T03:00:40.179Z,106.90
2019-04-27T03:01:45.664Z,108.30
2019-04-27T03:02:40.228Z,111.80
2019-04-27T03:03:41.178Z,115.20
2019-04-27T03:04:40.139Z,110.00
2019-04-27T03:05:40.088Z,114.80
2019-04-27T03:06:39.962Z,116.70
2019-04-27T03:07:40.552Z,118.30
2019-04-27T03:08:42.265Z,116.50
2019-04-27T03:09:39.676Z,121.90
2019-04-27T03:10:40.035Z,126.40
2019-04-27T03:11:39.729Z,110.90
2019-04-27T03:12:41.981Z,118.90
2019-04-27T03:13:40.509Z,111.80
2019-04-27T03:14:40.325Z,99.80
2019-04-27T03:15:40.279Z,108.90
2019-04-27T03:16:39.564Z,105.60
2019-04-27T03:17:39.698Z,105.10
2019-04-27T03:18:40.354Z,102.10
2019-04-27T03:19:39.792Z,98.60
2019-04-27T03:20:40.319Z,99.30
2019-04-27T03:21:39.563Z,95.50
2019-04-27T03:22:39.790Z,100.50
2019-04-27T03:23:41.031Z,97.00
2019-04-27T03:24:39.454Z,97.40
2019-04-27T03:25:40.154Z,95.40
2019-04-27T03:26:39.044Z,93.70
2019-04-27T03:27:40.523Z,93.70
2019-04-27T03:28:40.167Z,98.70
2019-04-27T03:29:38.969Z,105.20
2019-04-27T03:30:42.633Z,100.50
2019-04-27T03:31:42.542Z,95.80
2019-04-27T03:32:42.537Z,92.10
2019-04-27T03:33:42.675Z,86.70
2019-04-27T03:34:41.839Z,85.20
2019-04-27T03:35:42.736Z,85.90
2019-04-27T03:36:39.581Z,91.70
2019-04-27T03:37:40.361Z,92.60
2019-04-27T03:38:39.661Z,93.10
2019-04-27T03:39:39.648Z,100.50
2019-04-27T03:40:40.348Z,98.50
2019-04-27T03:41:38.327Z,99.60
2019-04-27T03:42:40.323Z,89.60
2019-04-27T03:43:40.257Z,93.90
2019-04-27T03:44:39.883Z,91.70
2019-04-27T03:45:39.991Z,95.50
2019-04-27T03:46:39.709Z,90.60
2019-04-27T03:47:40.762Z,98.90
2019-04-27T03:48:40.621Z,88.90
2019-04-27T03:49:41.429Z,90.10
2019-04-27T03:50:39.830Z,95.90
2019-04-27T03:51:40.291Z,87.00
2019-04-27T03:52:39.717Z,93.70
2019-04-27T03:53:39.659Z,90.00
2019-04-27T03:54:40.054Z,96.00
2019-04-27T03:55:39.790Z,99.00
2019-04-27T03:56:39.583Z,98.20
2019-04-27T03:57:40.266Z,109.00
2019-04-27T03:58:39.622Z,102.70
2019-04-27T03:59:40.386Z,93.80
2019-04-27T04:00:39.882Z,96.80
2019-04-27T04:01:39.604Z,102.60
2019-04-27T04:02:40.060Z,99.40
2019-04-27T04:03:39.387Z,94.40
2019-04-27T04:04:40.374Z,99.20
2019-04-27T04:05:39.831Z,103.20
2019-04-27T04:06:39.950Z,83.40
2019-04-27T04:07:39.808Z,91.40
2019-04-27T04:08:39.718Z,94.80
2019-04-27T04:09:39.984Z,93.70
2019-04-27T04:10:39.105Z,96.80
2019-04-27T04:11:39.564Z,99.30
2019-04-27T04:12:39.775Z,99.30
2019-04-27T04:13:39.644Z,97.70
2019-04-27T04:14:37.455Z,97.00
2019-04-27T04:15:39.683Z,98.50
2019-04-27T04:16:39.389Z,105.80
2019-04-27T04:17:37.356Z,110.80
2019-04-27T04:18:39.640Z,110.40
2019-04-27T04:19:51.063Z,109.30
2019-04-27T04:20:37.275Z,111.60
2019-04-27T04:21:39.687Z,105.00
2019-04-27T04:22:37.222Z,105.60
2019-04-27T04:23:37.204Z,120.40
2019-04-27T04:24:39.564Z,114.30
2019-04-27T04:25:37.140Z,104.90
2019-04-27T04:26:39.948Z,118.80
2019-04-27T04:27:37.085Z,113.00
2019-04-27T04:28:37.057Z,117.00
2019-04-27T04:29:39.329Z,117.30
2019-04-27T04:30:37.005Z,115.00
2019-04-27T04:31:36.978Z,119.30
2019-04-27T04:32:39.271Z,115.40
2019-04-27T04:33:36.923Z,119.80
2019-04-27T04:34:36.898Z,115.20
2019-04-27T04:35:39.495Z,123.50
2019-04-27T04:36:36.849Z,118.80
2019-04-27T04:37:39.290Z,113.40
2019-04-27T04:38:36.789Z,124.60
2019-04-27T04:39:36.762Z,114.80
2019-04-27T04:40:36.733Z,116.00
2019-04-27T04:41:36.708Z,129.40
2019-04-27T04:42:36.680Z,127.20
2019-04-27T04:43:36.660Z,123.40
2019-04-27T04:44:36.625Z,127.20
2019-04-27T04:45:36.598Z,130.30
2019-04-27T04:46:36.572Z,130.90
2019-04-27T04:47:36.544Z,131.80
2019-04-27T04:48:36.517Z,141.60
2019-04-27T04:49:36.494Z,144.70
2019-04-27T04:50:36.463Z,140.40
2019-04-27T04:51:36.436Z,135.30
2019-04-27T04:52:36.412Z,147.60
2019-04-27T04:53:36.383Z,136.00
2019-04-27T04:54:36.357Z,135.20
2019-04-27T04:55:36.329Z,138.00
2019-04-27T04:56:36.302Z,136.80
2019-04-27T04:57:36.275Z,132.10
2019-04-27T04:58:36.249Z,134.20
2019-04-27T04:59:36.223Z,128.60
2019-04-27T05:00:36.195Z,136.90
2019-04-27T05:01:36.172Z,131.80
2019-04-27T05:02:36.142Z,133.60
2019-04-27T05:03:36.113Z,136.70
2019-04-27T05:04:36.087Z,136.60
2019-04-27T05:05:36.059Z,133.10
2019-04-27T05:06:36.033Z,125.20
2019-04-27T05:07:36.006Z,134.00
2019-04-27T05:08:35.982Z,140.40
2019-04-27T05:09:35.953Z,132.10
2019-04-27T05:10:35.926Z,133.20
2019-04-27T05:11:35.899Z,144.20
2019-04-27T05:12:35.875Z,127.10
2019-04-27T05:13:35.847Z,124.40
2019-04-27T05:14:35.821Z,138.70
2019-04-27T05:15:35.795Z,137.50
2019-04-27T05:16:35.767Z,130.00
2019-04-27T05:17:35.742Z,135.90
2019-04-27T05:18:35.714Z,134.80
2019-04-27T05:19:35.687Z,119.50
2019-04-27T05:20:35.661Z,121.70
2019-04-27T05:21:35.636Z,114.40
2019-04-27T05:22:35.609Z,125.90
2019-04-27T05:23:35.584Z,118.90
2019-04-27T05:24:35.556Z,107.20
2019-04-27T05:25:35.529Z,110.00
2019-04-27T05:26:35.505Z,115.70
2019-04-27T05:27:35.478Z,121.70
2019-04-27T05:28:35.452Z,119.70
2019-04-27T05:29:35.427Z,109.00
2019-04-27T05:30:35.402Z,116.00
2019-04-27T05:31:35.374Z,122.40
2019-04-27T05:32:35.348Z,130.10
2019-04-27T05:33:35.323Z,117.70
2019-04-27T05:34:35.297Z,122.40
2019-04-27T05:35:35.272Z,111.50
2019-04-27T05:36:35.245Z,111.90
2019-04-27T05:37:35.221Z,107.40
2019-04-27T05:38:35.194Z,111.20
2019-04-27T05:39:35.167Z,107.60
2019-04-27T05:40:35.142Z,89.90
2019-04-27T05:41:37.403Z,88.30
2019-04-27T05:42:35.091Z,94.60
2019-04-27T05:43:35.064Z,95.40
2019-04-27T05:44:35.044Z,91.10
2019-04-27T05:45:35.017Z,92.90
2019-04-27T05:46:35.622Z,101.10
2019-04-27T05:47:34.966Z,92.80
2019-04-27T05:48:34.941Z,90.70
2019-04-27T05:49:36.251Z,91.60
2019-04-27T05:50:38.830Z,91.80
2019-04-27T05:51:37.305Z,86.30
2019-04-27T05:52:34.844Z,88.40
2019-04-27T05:53:34.819Z,80.00
2019-04-27T05:54:34.792Z,79.00
2019-04-27T05:55:34.768Z,73.20
2019-04-27T05:56:34.745Z,74.90
2019-04-27T05:57:34.732Z,79.10
2019-04-27T05:58:34.699Z,70.70
2019-04-27T05:59:34.672Z,75.40
2019-04-27T06:00:34.652Z,75.80
2019-04-27T06:01:34.625Z,72.30
2019-04-27T06:02:34.603Z,72.20
2019-04-27T06:03:34.577Z,68.50
2019-04-27T06:04:34.553Z,73.40
2019-04-27T06:05:34.531Z,71.60
2019-04-27T06:06:34.507Z,73.70
2019-04-27T06:07:34.484Z,74.30
2019-04-27T06:08:34.459Z,72.70
2019-04-27T06:09:34.436Z,76.80
2019-04-27T06:10:34.413Z,75.10
2019-04-27T06:11:34.389Z,74.30
2019-04-27T06:12:34.364Z,73.70
2019-04-27T06:13:34.342Z,75.20
2019-04-27T06:14:34.318Z,78.60
2019-04-27T06:15:34.294Z,75.00
2019-04-27T06:16:34.270Z,71.20
2019-04-27T06:17:34.248Z,73.30
2019-04-27T06:18:34.224Z,70.50
2019-04-27T06:19:34.201Z,70.20
2019-04-27T06:20:34.177Z,65.80
2019-04-27T06:21:34.155Z,71.00
2019-04-27T06:22:34.131Z,72.70
2019-04-27T06:23:34.108Z,67.50
2019-04-27T06:24:34.083Z,78.50
2019-04-27T06:25:34.062Z,72.30
2019-04-27T06:26:34.038Z,69.10
2019-04-27T06:27:34.014Z,78.30
2019-04-27T06:28:33.991Z,75.80
2019-04-27T06:29:33.969Z,77.70
2019-04-27T06:30:33.947Z,74.30
2019-04-27T06:31:33.921Z,69.20
2019-04-27T06:32:33.900Z,75.20
2019-04-27T06:33:34.458Z,74.50
2019-04-27T06:34:33.855Z,71.30
2019-04-27T06:35:33.831Z,73.40
2019-04-27T06:36:33.806Z,70.80
2019-04-27T06:37:33.782Z,68.90
2019-04-27T06:38:33.765Z,66.70
2019-04-27T06:39:33.736Z,65.50
2019-04-27T06:40:35.452Z,65.50
2019-04-27T06:41:33.701Z,67.30
2019-04-27T06:42:33.676Z,66.90
2019-04-27T06:43:33.644Z,65.90
2019-04-27T06:44:33.629Z,64.10
2019-04-27T06:45:33.600Z,65.60
2019-04-27T06:46:33.578Z,63.90
2019-04-27T06:47:33.555Z,62.70
2019-04-27T06:48:33.534Z,62.50
2019-04-27T06:49:33.510Z,65.40
2019-04-27T06:50:33.491Z,64.70
2019-04-27T06:51:33.466Z,63.10
2019-04-27T06:52:33.441Z,59.40
2019-04-27T06:53:33.420Z,59.80
2019-04-27T06:54:33.398Z,57.80
2019-04-27T06:55:33.375Z,63.60
2019-04-27T06:56:33.353Z,57.60
2019-04-27T06:57:33.331Z,60.30
2019-04-27T06:58:33.308Z,61.20
2019-04-27T06:59:33.285Z,58.90
2019-04-27T07:00:33.265Z,60.70
2019-04-27T07:01:33.243Z,61.70
2019-04-27T07:02:33.221Z,56.60
2019-04-27T07:03:33.199Z,60.40
2019-04-27T07:04:33.179Z,61.10
2019-04-27T07:05:33.159Z,57.90
2019-04-27T07:06:33.134Z,56.00
2019-04-27T07:07:33.131Z,55.50
2019-04-27T07:08:33.089Z,55.50
2019-04-27T07:09:33.068Z,58.60
2019-04-27T07:10:33.048Z,56.60
2019-04-27T07:11:33.025Z,56.70
2019-04-27T07:12:33.003Z,54.50
2019-04-27T07:13:32.982Z,49.20
2019-04-27T07:14:32.962Z,50.80
2019-04-27T07:15:32.944Z,54.10
2019-04-27T07:16:32.921Z,49.80
2019-04-27T07:17:32.901Z,49.40
2019-04-27T07:18:32.880Z,48.10
2019-04-27T07:19:32.859Z,49.40
2019-04-27T07:20:32.840Z,48.60
2019-04-27T07:21:32.822Z,49.90
2019-04-27T07:22:32.801Z,47.00
2019-04-27T07:23:32.780Z,45.30
2019-04-27T07:24:32.762Z,48.30
2019-04-27T07:25:32.743Z,46.30
2019-04-27T07:26:32.725Z,47.40
2019-04-27T07:27:32.704Z,46.40
2019-04-27T07:28:32.687Z,46.40
2019-04-27T07:29:32.667Z,44.90
2019-04-27T07:30:32.649Z,44.70
2019-04-27T07:31:32.633Z,45.00
2019-04-27T07:32:32.611Z,42.80
2019-04-27T07:33:32.594Z,48.60
2019-04-27T07:34:32.577Z,43.40
2019-04-27T07:35:32.558Z,44.30
2019-04-27T07:36:32.540Z,43.10
2019-04-27T07:37:32.520Z,42.10
2019-04-27T07:38:32.504Z,42.20
2019-04-27T07:39:32.487Z,44.00
2019-04-27T07:40:32.476Z,42.80
2019-04-27T07:41:32.452Z,40.00
2019-04-27T07:42:34.088Z,39.60
2019-04-27T07:43:32.418Z,42.70
2019-04-27T07:44:32.400Z,37.80
2019-04-27T07:45:32.385Z,38.40
2019-04-27T07:46:32.369Z,36.60
2019-04-27T07:47:32.354Z,39.30
2019-04-27T07:48:32.334Z,36.30
2019-04-27T07:49:32.317Z,35.40
2019-04-27T07:50:32.302Z,36.90
2019-04-27T07:51:34.412Z,37.00
2019-04-27T07:52:32.267Z,35.00
2019-04-27T07:53:32.251Z,36.10
2019-04-27T07:54:32.236Z,33.20
2019-04-27T07:55:32.218Z,33.40
2019-04-27T07:56:32.202Z,32.50
2019-04-27T07:57:32.186Z,34.80
2019-04-27T07:58:32.171Z,33.40
2019-04-27T07:59:32.154Z,33.60
2019-04-27T08:00:32.139Z,34.70
2019-04-27T08:01:32.123Z,32.20
2019-04-27T08:02:32.108Z,32.80
2019-04-27T08:03:32.092Z,34.70
2019-04-27T08:04:32.076Z,34.80
2019-04-27T08:05:32.061Z,32.90
2019-04-27T08:06:32.044Z,31.80
2019-04-27T08:07:32.033Z,32.30
2019-04-27T08:08:32.013Z,31.30
2019-04-27T08:09:31.998Z,31.30
2019-04-27T08:10:31.981Z,31.30
2019-04-27T08:11:31.964Z,30.60
2019-04-27T08:12:31.951Z,30.30
2019-04-27T08:13:31.933Z,30.60
2019-04-27T08:14:31.915Z,30.00
2019-04-27T08:15:31.899Z,30.50
2019-04-27T08:16:31.885Z,31.30
2019-04-27T08:17:31.868Z,28.90
2019-04-27T08:18:31.852Z,31.00
2019-04-27T08:19:31.834Z,30.20
2019-04-27T08:20:31.818Z,30.60
2019-04-27T08:21:43.110Z,33.80
2019-04-27T08:22:31.783Z,28.90
2019-04-27T08:23:31.766Z,27.60
2019-04-27T08:24:31.749Z,29.30
2019-04-27T08:25:31.733Z,29.90
2019-04-27T08:26:31.716Z,29.00
2019-04-27T08:27:31.700Z,27.00
2019-04-27T08:28:31.680Z,27.80
2019-04-27T08:29:33.013Z,31.70
2019-04-27T08:30:31.645Z,26.80
2019-04-27T08:31:31.627Z,28.40
2019-04-27T08:32:31.611Z,28.70
2019-04-27T08:33:31.594Z,30.30
2019-04-27T08:34:31.575Z,25.30
2019-04-27T08:35:32.768Z,24.60
2019-04-27T08:36:31.540Z,23.60
2019-04-27T08:37:31.524Z,22.30
2019-04-27T08:38:31.506Z,26.60
2019-04-27T08:39:31.486Z,24.70
2019-04-27T08:40:31.480Z,25.40
2019-04-27T08:41:31.452Z,27.80
2019-04-27T08:42:31.434Z,26.50
2019-04-27T08:43:31.417Z,26.50
2019-04-27T08:44:31.791Z,26.20
2019-04-27T08:45:31.382Z,26.50
2019-04-27T08:46:31.364Z,25.30
2019-04-27T08:47:31.346Z,26.00
2019-04-27T08:48:36.910Z,25.60
2019-04-27T08:49:31.314Z,25.00
2019-04-27T08:50:31.296Z,25.80
2019-04-27T08:51:31.281Z,23.80
2019-04-27T08:52:31.264Z,22.10
2019-04-27T08:53:31.248Z,21.80
2019-04-27T08:54:31.231Z,24.60
2019-04-27T08:55:31.214Z,21.60
2019-04-27T08:56:31.201Z,22.70
2019-04-27T08:57:31.183Z,25.90
2019-04-27T08:58:31.167Z,22.60
2019-04-27T08:59:31.150Z,24.20
2019-04-27T09:00:31.135Z,22.30
2019-04-27T09:01:31.119Z,22.10
2019-04-27T09:02:41.743Z,21.70
2019-04-27T09:03:31.087Z,19.90
2019-04-27T09:04:31.070Z,20.20
2019-04-27T09:05:31.056Z,20.50
2019-04-27T09:06:31.241Z,17.30
2019-04-27T09:07:31.805Z,16.80
2019-04-27T09:08:31.008Z,20.20
2019-04-27T09:09:30.993Z,18.60
2019-04-27T09:10:30.977Z,18.70
2019-04-27T09:11:30.962Z,18.30
2019-04-27T09:12:30.944Z,17.80
2019-04-27T09:13:30.927Z,19.30
2019-04-27T09:14:30.911Z,20.80
2019-04-27T09:15:30.895Z,20.40
2019-04-27T09:16:30.879Z,19.00
2019-04-27T09:17:31.092Z,17.60
2019-04-27T09:18:32.395Z,18.30
2019-04-27T09:19:30.832Z,18.40
2019-04-27T09:20:30.816Z,18.40
2019-04-27T09:21:30.802Z,17.30
2019-04-27T09:22:30.787Z,18.50
2019-04-27T09:23:30.772Z,19.20
2019-04-27T09:24:30.754Z,17.10
2019-04-27T09:25:30.738Z,16.10
2019-04-27T09:26:30.724Z,14.70
2019-04-27T09:27:30.707Z,15.70
2019-04-27T09:28:30.693Z,14.60
2019-04-27T09:29:30.677Z,14.20
2019-04-27T09:30:30.662Z,15.20
2019-04-27T09:31:30.647Z,15.40
2019-04-27T09:32:30.631Z,15.40
2019-04-27T09:33:30.616Z,12.50
2019-04-27T09:34:30.602Z,12.90
2019-04-27T09:35:30.585Z,12.10
2019-04-27T09:36:30.569Z,13.30
2019-04-27T09:37:30.554Z,12.40
2019-04-27T09:38:30.539Z,10.90
2019-04-27T09:39:30.523Z,10.50
2019-04-27T09:40:30.507Z,10.10
2019-04-27T09:41:30.493Z,9.60
2019-04-27T09:42:30.477Z,10.80
2019-04-27T09:43:30.461Z,10.00
2019-04-27T09:44:30.445Z,10.30
2019-04-27T09:45:30.439Z,10.50
2019-04-27T09:46:30.433Z,12.10
2019-04-27T09:47:30.399Z,9.80
2019-04-27T09:48:30.415Z,9.60
2019-04-27T09:49:30.364Z,11.40
2019-04-27T09:50:30.352Z,12.00
2019-04-27T09:51:30.333Z,11.30
2019-04-27T09:52:30.317Z,11.00
2019-04-27T09:53:30.304Z,10.70
2019-04-27T09:54:30.287Z,10.10
2019-04-27T09:55:30.268Z,10.30
2019-04-27T09:56:30.254Z,9.20
2019-04-27T09:57:30.239Z,9.60
2019-04-27T09:58:30.222Z,10.90
2019-04-27T09:59:30.211Z,9.70
2019-04-27T10:00:30.192Z,9.30
2019-04-27T10:01:30.176Z,8.50
2019-04-27T10:02:30.160Z,8.00
2019-04-27T10:03:30.144Z,8.20
2019-04-27T10:04:30.134Z,8.30
2019-04-27T10:05:30.113Z,8.90
2019-04-27T10:06:30.170Z,8.50
2019-04-27T10:07:30.081Z,8.90
2019-04-27T10:08:30.066Z,8.70
2019-04-27T10:09:30.051Z,7.10
2019-04-27T10:10:30.035Z,8.00
2019-04-27T10:11:30.018Z,8.80
2019-04-27T10:12:30.002Z,9.00
2019-04-27T10:13:29.987Z,7.30
2019-04-27T10:14:29.971Z,9.80
2019-04-27T10:15:29.956Z,8.70
2019-04-27T10:16:29.937Z,7.90
2019-04-27T10:17:29.924Z,6.90
2019-04-27T10:18:29.907Z,7.20
2019-04-27T10:19:32.952Z,8.60
2019-04-27T10:20:29.875Z,11.00
2019-04-27T10:21:29.862Z,7.50
2019-04-27T10:22:40.569Z,7.30
2019-04-27T10:23:29.834Z,11.00
2019-04-27T10:24:29.815Z,7.30
2019-04-27T10:25:29.804Z,7.80
2019-04-27T10:26:29.787Z,7.10
2019-04-27T10:27:29.773Z,7.90
2019-04-27T10:28:29.756Z,10.40
2019-04-27T10:29:29.747Z,10.10
2019-04-27T10:30:29.728Z,9.20
2019-04-27T10:31:29.795Z,8.10
2019-04-27T10:32:29.698Z,9.20
2019-04-27T10:33:29.684Z,9.30
2019-04-27T10:34:29.671Z,9.90
2019-04-27T10:35:29.660Z,9.70
2019-04-27T10:36:29.640Z,7.10
2019-04-27T10:37:29.626Z,9.20
2019-04-27T10:38:29.635Z,7.70
2019-04-27T10:39:29.597Z,8.80
2019-04-27T10:40:29.584Z,7.40
2019-04-27T10:41:29.570Z,7.70
2019-04-27T10:42:29.555Z,7.30
2019-04-27T10:43:29.539Z,6.50
2019-04-27T10:44:29.524Z,9.80
2019-04-27T10:45:29.513Z,9.80
2019-04-27T10:46:29.497Z,7.40
2019-04-27T10:47:29.480Z,6.50
2019-04-27T10:48:29.467Z,12.50
2019-04-27T10:49:29.454Z,7.20
2019-04-27T10:50:29.439Z,7.10
2019-04-27T10:51:29.423Z,10.20
2019-04-27T10:52:29.412Z,8.40
2019-04-27T10:53:29.394Z,7.70
2019-04-27T10:54:29.382Z,8.90
2019-04-27T10:55:29.381Z,10.00
2019-04-27T10:56:29.353Z,9.20
2019-04-27T10:57:29.338Z,8.70
2019-04-27T10:58:29.325Z,9.10
2019-04-27T10:59:29.311Z,7.80
2019-04-27T11:00:29.299Z,7.30
2019-04-27T11:01:29.284Z,7.90
2019-04-27T11:02:29.267Z,10.60
2019-04-27T11:03:29.253Z,9.50
2019-04-27T11:04:29.237Z,9.90
2019-04-27T11:05:31.209Z,9.40
2019-04-27T11:06:29.208Z,9.70
2019-04-27T11:07:29.195Z,7.40
2019-04-27T11:08:29.177Z,6.40
2019-04-27T11:09:29.161Z,9.20
2019-04-27T11:10:29.145Z,7.00
2019-04-27T11:11:29.153Z,7.80
2019-04-27T11:12:29.113Z,6.20
2019-04-27T11:13:29.100Z,9.20
2019-04-27T11:14:29.081Z,7.70
2019-04-27T11:15:29.064Z,7.70
2019-04-27T11:16:29.051Z,7.50
2019-04-27T11:17:29.034Z,6.30
2019-04-27T11:18:29.016Z,5.60
2019-04-27T11:19:28.999Z,7.40
2019-04-27T11:20:28.982Z,6.10
2019-04-27T11:21:28.972Z,5.40
2019-04-27T11:22:28.950Z,5.90
2019-04-27T11:23:28.932Z,4.20
2019-04-27T11:24:28.916Z,4.90
2019-04-27T11:25:28.900Z,9.50
2019-04-27T11:26:28.888Z,6.40
2019-04-27T11:27:28.866Z,6.30
2019-04-27T11:28:28.850Z,5.10
2019-04-27T11:29:28.834Z,8.50
2019-04-27T11:30:28.817Z,5.00
2019-04-27T11:31:28.801Z,4.50
2019-04-27T11:32:28.785Z,6.00
2019-04-27T11:33:28.768Z,6.30
2019-04-27T11:34:28.753Z,4.70
2019-04-27T11:35:28.734Z,12.30
2019-04-27T11:36:28.717Z,5.50
2019-04-27T11:37:28.702Z,6.00
2019-04-27T11:38:28.685Z,5.80
2019-04-27T11:39:28.665Z,6.10
2019-04-27T11:40:28.647Z,6.30
2019-04-27T11:41:28.632Z,4.20
2019-04-27T11:42:28.614Z,4.10
2019-04-27T11:43:28.596Z,5.90
2019-04-27T11:44:28.580Z,4.80
2019-04-27T11:45:28.635Z,5.10
2019-04-27T11:46:28.545Z,6.10
2019-04-27T11:47:28.528Z,4.10
2019-04-27T11:48:28.510Z,5.60
2019-04-27T11:49:28.494Z,5.30
2019-04-27T11:50:28.477Z,4.60
2019-04-27T11:51:28.459Z,3.20
2019-04-27T11:52:28.441Z,4.50
2019-04-27T11:53:28.426Z,4.10
2019-04-27T11:54:28.408Z,4.50
2019-04-27T11:55:28.389Z,5.10
2019-04-27T11:56:28.390Z,4.40
2019-04-27T11:57:28.359Z,3.10
2019-04-27T11:58:28.340Z,4.10
2019-04-27T11:59:28.324Z,5.90
2019-04-27T12:00:28.306Z,5.60
2019-04-27T12:01:28.289Z,4.20
2019-04-27T12:02:28.273Z,4.00
2019-04-27T12:03:28.254Z,5.60
2019-04-27T12:04:28.239Z,6.20
2019-04-27T12:05:28.224Z,4.70
2019-04-27T12:06:28.204Z,5.60
2019-04-27T12:07:28.184Z,4.90
2019-04-27T12:08:28.168Z,3.70
2019-04-27T12:09:28.151Z,4.40
2019-04-27T12:10:28.135Z,4.20
2019-04-27T12:11:28.116Z,4.00
2019-04-27T12:12:28.104Z,4.20
2019-04-27T12:13:28.083Z,4.20
2019-04-27T12:14:28.066Z,6.20
2019-04-27T12:15:28.049Z,6.20
2019-04-27T12:16:28.031Z,4.20
2019-04-27T12:17:29.270Z,7.20
2019-04-27T12:18:27.998Z,3.80
2019-04-27T12:19:27.979Z,3.60
2019-04-27T12:20:27.961Z,5.50
2019-04-27T12:21:27.948Z,5.10
2019-04-27T12:22:27.930Z,4.50
2019-04-27T12:23:35.569Z,4.10
2019-04-27T12:24:27.900Z,4.70
2019-04-27T12:25:27.878Z,3.50
2019-04-27T12:26:27.862Z,5.30
2019-04-27T12:27:27.844Z,4.20
2019-04-27T12:28:27.827Z,3.20
2019-04-27T12:29:27.810Z,4.90
2019-04-27T12:30:27.798Z,5.60
2019-04-27T12:31:27.779Z,3.90
2019-04-27T12:32:27.763Z,4.20
2019-04-27T12:33:27.857Z,3.20
2019-04-27T12:34:27.935Z,4.70
2019-04-27T12:35:27.714Z,2.70
2019-04-27T12:36:27.698Z,3.70
2019-04-27T12:37:27.681Z,3.50
2019-04-27T12:38:28.330Z,3.60
2019-04-27T12:39:27.648Z,3.30
2019-04-27T12:40:27.631Z,4.20
2019-04-27T12:41:27.616Z,3.90
2019-04-27T12:42:27.597Z,3.20
2019-04-27T12:43:27.580Z,3.70
2019-04-27T12:44:27.564Z,3.90
2019-04-27T12:45:27.548Z,3.70
2019-04-27T12:46:27.531Z,2.10
2019-04-27T12:47:27.514Z,3.90
2019-04-27T12:48:27.497Z,3.20
2019-04-27T12:49:27.484Z,3.50
2019-04-27T12:50:27.466Z,4.90
2019-04-27T12:51:27.448Z,4.80
2019-04-27T12:52:27.430Z,4.70
2019-04-27T12:53:27.414Z,2.60
2019-04-27T12:54:27.399Z,3.40